createdAt,value
2017-12-19T00:01:23.578Z,2.50
2017-12-19T00:03:51.263Z,2.50
2017-12-19T00:06:19.018Z,2.60
2017-12-19T00:08:46.727Z,2.60
2017-12-19T00:11:14.458Z,2.60
2017-12-19T00:13:42.902Z,2.70
2017-12-19T00:16:10.611Z,2.70
2017-12-19T00:18:38.295Z,2.60
2017-12-19T00:21:06.056Z,2.50
2017-12-19T00:23:33.783Z,2.40
2017-12-19T00:26:02.327Z,2.60
2017-12-19T00:28:30.012Z,2.60
2017-12-19T00:30:58.488Z,2.60
2017-12-19T00:33:26.219Z,2.60
2017-12-19T00:35:53.942Z,2.50
2017-12-19T00:38:21.620Z,2.40
2017-12-19T00:40:49.383Z,2.40
2017-12-19T00:43:17.083Z,2.40
2017-12-19T00:45:44.808Z,2.50
2017-12-19T00:48:12.511Z,2.40
2017-12-19T00:50:40.980Z,2.30
2017-12-19T00:53:08.709Z,2.30
2017-12-19T00:55:36.458Z,2.50
2017-12-19T00:58:04.191Z,2.50
2017-12-19T01:00:31.883Z,2.60
2017-12-19T01:02:59.588Z,2.40
2017-12-19T01:05:28.067Z,2.30
2017-12-19T01:07:56.575Z,2.30
2017-12-19T01:10:24.243Z,2.20
2017-12-19T01:12:51.967Z,2.40
2017-12-19T01:15:20.427Z,2.60
2017-12-19T01:17:48.187Z,2.50
2017-12-19T01:20:15.851Z,2.50
2017-12-19T01:22:43.562Z,2.50
2017-12-19T01:25:11.217Z,2.40
2017-12-19T01:27:38.918Z,2.40
2017-12-19T01:30:06.580Z,2.30
2017-12-19T01:32:34.275Z,2.20
2017-12-19T01:35:02.709Z,2.50
2017-12-19T01:37:30.411Z,2.50
2017-12-19T01:39:58.835Z,2.30
2017-12-19T01:42:26.538Z,2.30
2017-12-19T01:44:54.200Z,2.50
2017-12-19T01:47:22.666Z,2.40
2017-12-19T01:49:50.326Z,2.40
2017-12-19T01:52:18.608Z,2.30
2017-12-19T01:54:47.091Z,2.20
2017-12-19T01:57:15.517Z,2.30
2017-12-19T01:59:43.231Z,2.30
2017-12-19T02:02:11.672Z,2.20
2017-12-19T02:04:39.375Z,2.20
2017-12-19T02:07:07.816Z,2.30
2017-12-19T02:09:35.542Z,2.30
2017-12-19T02:12:03.190Z,2.40
2017-12-19T02:14:30.897Z,2.40
2017-12-19T02:16:58.604Z,2.30
2017-12-19T02:19:26.378Z,2.30
2017-12-19T02:21:54.100Z,2.10
2017-12-19T02:24:21.870Z,2.20
2017-12-19T02:26:54.114Z,2.20
2017-12-19T02:29:21.950Z,2.20
2017-12-19T02:31:49.691Z,2.20
2017-12-19T02:34:17.455Z,2.20
2017-12-19T02:36:45.187Z,2.20
2017-12-19T02:39:13.727Z,2.20
2017-12-19T02:41:41.454Z,2.20
2017-12-19T02:44:09.223Z,2.50
2017-12-19T02:46:36.950Z,2.60
2017-12-19T02:49:05.480Z,2.40
2017-12-19T02:51:33.220Z,2.40
2017-12-19T02:54:00.991Z,2.50
2017-12-19T02:56:28.719Z,2.60
2017-12-19T02:58:57.269Z,2.60
2017-12-19T03:01:24.999Z,2.60
2017-12-19T03:03:52.770Z,2.70
2017-12-19T03:06:20.503Z,2.50
2017-12-19T03:08:48.270Z,2.60
2017-12-19T03:11:16.008Z,2.60
2017-12-19T03:13:44.549Z,2.60
2017-12-19T03:16:12.294Z,2.60
2017-12-19T03:18:40.158Z,2.50
2017-12-19T03:21:08.650Z,2.20
2017-12-19T03:23:36.393Z,2.20
2017-12-19T03:26:04.159Z,2.20
2017-12-19T03:28:31.903Z,2.10
2017-12-19T03:30:59.672Z,2.10
2017-12-19T03:33:27.428Z,2.10
2017-12-19T03:35:55.194Z,2.10
2017-12-19T03:38:22.923Z,2.00
2017-12-19T03:40:50.698Z,2.00
2017-12-19T03:43:18.427Z,2.10
2017-12-19T03:45:47.016Z,2.10
2017-12-19T03:48:15.511Z,2.10
2017-12-19T03:50:43.287Z,2.10
2017-12-19T03:53:11.019Z,2.20
2017-12-19T03:55:39.554Z,2.20
2017-12-19T03:58:07.279Z,2.30
2017-12-19T04:00:35.051Z,2.30
2017-12-19T04:03:02.775Z,2.30
2017-12-19T04:05:31.315Z,2.10
2017-12-19T04:07:59.051Z,2.10
2017-12-19T04:10:26.827Z,2.00
2017-12-19T04:12:54.563Z,2.10
2017-12-19T04:15:22.334Z,2.10
2017-12-19T04:17:50.062Z,2.10
2017-12-19T04:20:18.600Z,2.20
2017-12-19T04:22:46.325Z,2.20
2017-12-19T04:25:14.104Z,2.30
2017-12-19T04:27:41.850Z,2.30
2017-12-19T04:30:09.598Z,2.20
2017-12-19T04:32:37.329Z,2.20
2017-12-19T04:35:05.116Z,2.10
2017-12-19T04:37:33.602Z,2.20
2017-12-19T04:40:01.370Z,2.20
2017-12-19T04:42:29.100Z,2.10
2017-12-19T04:44:57.674Z,2.20
2017-12-19T04:47:25.406Z,2.20
2017-12-19T04:49:53.172Z,2.20
2017-12-19T04:52:20.879Z,2.10
2017-12-19T04:54:49.395Z,2.30
2017-12-19T04:57:17.118Z,2.30
2017-12-19T04:59:45.644Z,2.70
2017-12-19T05:02:13.371Z,2.70
2017-12-19T05:04:41.136Z,2.80
2017-12-19T05:07:08.850Z,2.50
2017-12-19T05:09:36.636Z,2.30
2017-12-19T05:12:05.112Z,2.10
2017-12-19T05:14:33.654Z,2.20
2017-12-19T05:17:01.390Z,2.20
2017-12-19T05:19:29.146Z,2.30
2017-12-19T05:21:56.898Z,2.50
2017-12-19T05:24:24.678Z,2.40
2017-12-19T05:26:52.396Z,2.20
2017-12-19T05:29:20.883Z,2.20
2017-12-19T05:31:49.408Z,2.30
2017-12-19T05:34:17.207Z,2.30
2017-12-19T05:36:44.991Z,2.30
2017-12-19T05:39:13.522Z,2.40
2017-12-19T05:41:41.257Z,2.40
2017-12-19T05:44:08.983Z,2.30
2017-12-19T05:46:37.525Z,2.30
2017-12-19T05:49:05.258Z,2.30
2017-12-19T05:51:33.369Z,2.20
2017-12-19T05:54:01.080Z,2.20
2017-12-19T05:56:28.853Z,2.20
2017-12-19T05:58:56.551Z,2.20
2017-12-19T06:01:24.309Z,2.20
2017-12-19T06:03:52.029Z,2.20
2017-12-19T06:06:19.794Z,2.20
2017-12-19T06:08:47.523Z,2.20
2017-12-19T06:11:16.063Z,2.10
2017-12-19T06:13:43.791Z,2.10
2017-12-19T06:16:11.555Z,2.20
2017-12-19T06:18:39.275Z,2.20
2017-12-19T06:21:07.050Z,2.10
2017-12-19T06:23:35.593Z,2.10
2017-12-19T06:26:03.354Z,2.00
2017-12-19T06:28:31.104Z,2.10
2017-12-19T06:30:58.866Z,2.10
2017-12-19T06:33:26.609Z,2.10
2017-12-19T06:35:54.376Z,2.10
2017-12-19T06:38:22.106Z,2.20
2017-12-19T06:40:50.639Z,2.20
2017-12-19T06:43:18.343Z,2.20
2017-12-19T06:45:46.977Z,2.20
2017-12-19T06:48:14.713Z,2.20
2017-12-19T06:50:42.504Z,2.20
2017-12-19T06:53:10.230Z,2.10
2017-12-19T06:55:37.974Z,2.20
2017-12-19T06:58:05.719Z,2.20
2017-12-19T07:00:34.247Z,2.10
2017-12-19T07:03:01.984Z,2.10
2017-12-19T07:05:29.754Z,2.20
2017-12-19T07:07:57.490Z,2.20
2017-12-19T07:10:26.028Z,2.20
2017-12-19T07:12:53.828Z,2.20
2017-12-19T07:15:22.371Z,2.10
2017-12-19T07:17:50.159Z,2.10
2017-12-19T07:20:17.966Z,2.20
2017-12-19T07:22:45.695Z,2.20
2017-12-19T07:25:14.248Z,2.20
2017-12-19T07:27:41.988Z,2.20
2017-12-19T07:30:09.782Z,2.20
2017-12-19T07:32:37.499Z,2.10
2017-12-19T07:35:05.282Z,2.20
2017-12-19T07:37:33.131Z,2.20
2017-12-19T07:40:00.891Z,2.20
2017-12-19T07:42:28.603Z,2.30
2017-12-19T07:44:57.184Z,2.20
2017-12-19T07:47:25.762Z,2.10
2017-12-19T07:49:54.243Z,2.20
2017-12-19T07:52:22.731Z,2.30
2017-12-19T07:54:51.726Z,2.30
2017-12-19T07:57:20.235Z,2.30
2017-12-19T07:59:48.572Z,2.30
2017-12-19T08:02:17.116Z,2.50
2017-12-19T08:04:45.383Z,2.50
2017-12-19T08:07:13.075Z,2.80
2017-12-19T08:09:40.751Z,2.90
2017-12-19T08:12:09.030Z,2.80
2017-12-19T08:14:36.724Z,2.60
2017-12-19T08:17:04.529Z,2.50
2017-12-19T08:19:32.256Z,2.60
2017-12-19T08:22:00.042Z,2.60
2017-12-19T08:24:27.722Z,2.50
2017-12-19T08:26:56.190Z,2.40
2017-12-19T08:29:23.870Z,2.40
2017-12-19T08:31:52.403Z,2.50
2017-12-19T08:34:20.156Z,2.50
2017-12-19T08:36:47.931Z,2.70
2017-12-19T08:39:15.589Z,2.90
2017-12-19T08:41:44.331Z,2.80
2017-12-19T08:44:12.017Z,2.80
2017-12-19T08:46:39.854Z,2.70
2017-12-19T08:49:07.523Z,2.80
2017-12-19T08:51:35.271Z,2.60
2017-12-19T08:54:02.941Z,2.70
2017-12-19T08:56:30.654Z,2.80
2017-12-19T08:58:58.324Z,2.90
2017-12-19T09:01:26.790Z,2.90
2017-12-19T09:03:54.461Z,2.90
2017-12-19T09:06:22.263Z,3.00
2017-12-19T09:08:49.973Z,3.00
2017-12-19T09:11:17.729Z,2.90
2017-12-19T09:13:45.465Z,2.80
2017-12-19T09:16:13.170Z,2.80
2017-12-19T09:18:41.600Z,2.90
2017-12-19T09:21:10.075Z,3.10
2017-12-19T09:23:37.740Z,3.10
2017-12-19T09:26:05.457Z,3.30
2017-12-19T09:28:33.122Z,3.20
2017-12-19T09:31:00.837Z,3.10
2017-12-19T09:33:28.523Z,3.00
2017-12-19T09:35:57.039Z,2.90
2017-12-19T09:38:24.722Z,2.90
2017-12-19T09:40:52.483Z,3.00
2017-12-19T09:43:20.146Z,3.00
2017-12-19T09:45:47.855Z,2.90
2017-12-19T09:48:16.382Z,3.10
2017-12-19T09:50:44.148Z,3.10
2017-12-19T09:53:11.815Z,3.20
2017-12-19T09:55:39.528Z,3.50
2017-12-19T09:58:07.211Z,3.60
2017-12-19T10:00:34.915Z,3.80
2017-12-19T10:03:02.584Z,3.70
2017-12-19T10:05:31.057Z,3.90
2017-12-19T10:07:59.567Z,4.00
2017-12-19T10:10:27.280Z,4.00
2017-12-19T10:12:55.025Z,4.10
2017-12-19T10:15:23.723Z,4.10
2017-12-19T10:17:51.451Z,4.10
2017-12-19T10:20:19.319Z,4.10
2017-12-19T10:22:47.079Z,4.10
2017-12-19T10:25:14.795Z,4.00
2017-12-19T10:27:43.306Z,3.60
2017-12-19T10:30:11.063Z,3.60
2017-12-19T10:32:38.796Z,3.50
2017-12-19T10:35:07.292Z,3.80
2017-12-19T10:37:35.028Z,3.90
2017-12-19T10:40:03.510Z,4.10
2017-12-19T10:42:31.986Z,4.20
2017-12-19T10:45:00.416Z,4.30
2017-12-19T10:47:28.156Z,4.30
2017-12-19T10:49:55.842Z,4.20
2017-12-19T10:52:23.585Z,4.20
2017-12-19T10:54:51.251Z,4.30
2017-12-19T10:57:19.107Z,4.30
2017-12-19T10:59:46.771Z,4.40
2017-12-19T11:02:14.488Z,4.50
2017-12-19T11:04:42.925Z,4.40
2017-12-19T11:07:10.659Z,4.40
2017-12-19T11:09:38.325Z,4.50
2017-12-19T11:12:06.044Z,4.40
2017-12-19T11:14:34.475Z,4.60
2017-12-19T11:17:02.178Z,4.60
2017-12-19T11:19:29.843Z,4.50
2017-12-19T11:21:58.364Z,4.60
2017-12-19T11:24:26.091Z,4.60
2017-12-19T11:26:54.638Z,4.80
2017-12-19T11:29:22.380Z,4.80
2017-12-19T11:31:50.177Z,4.80
2017-12-19T11:34:17.911Z,4.80
2017-12-19T11:36:45.682Z,4.80
2017-12-19T11:39:13.423Z,4.60
2017-12-19T11:41:41.180Z,4.60
2017-12-19T11:44:08.859Z,4.70
2017-12-19T11:46:36.679Z,4.80
2017-12-19T11:49:04.378Z,4.90
2017-12-19T11:51:32.130Z,5.00
2017-12-19T11:53:59.821Z,4.80
2017-12-19T11:56:27.584Z,4.50
2017-12-19T11:58:56.072Z,4.30
2017-12-19T12:01:23.839Z,4.30
2017-12-19T12:03:52.720Z,4.50
2017-12-19T12:06:20.943Z,4.50
2017-12-19T12:08:48.655Z,4.40
2017-12-19T12:11:16.395Z,4.50
2017-12-19T12:13:44.076Z,4.50
2017-12-19T12:16:11.804Z,4.60
2017-12-19T12:18:39.644Z,4.60
2017-12-19T12:21:07.375Z,4.50
2017-12-19T12:23:35.894Z,4.60
2017-12-19T12:26:03.716Z,4.60
2017-12-19T12:28:31.442Z,4.60
2017-12-19T12:30:59.143Z,4.70
2017-12-19T12:33:26.891Z,4.60
2017-12-19T12:35:55.438Z,4.80
2017-12-19T12:38:23.191Z,4.90
2017-12-19T12:40:50.966Z,4.70
2017-12-19T12:43:18.716Z,4.40
2017-12-19T12:45:46.374Z,4.40
2017-12-19T12:48:14.104Z,4.40
2017-12-19T12:50:41.779Z,4.50
2017-12-19T12:53:09.486Z,4.50
2017-12-19T12:55:37.154Z,4.80
2017-12-19T12:58:05.701Z,4.80
2017-12-19T13:00:33.438Z,4.80
2017-12-19T13:03:01.191Z,4.80
2017-12-19T13:05:28.973Z,4.60
2017-12-19T13:07:56.746Z,4.60
2017-12-19T13:10:24.486Z,4.60
2017-12-19T13:12:52.247Z,4.40
2017-12-19T13:15:20.107Z,4.40
2017-12-19T13:17:47.855Z,4.40
2017-12-19T13:20:15.527Z,4.40
2017-12-19T13:22:43.240Z,4.50
2017-12-19T13:25:11.674Z,4.60
2017-12-19T13:27:39.392Z,4.60
2017-12-19T13:30:07.830Z,4.30
2017-12-19T13:32:35.548Z,4.30
2017-12-19T13:35:03.239Z,4.30
2017-12-19T13:37:30.939Z,4.30
2017-12-19T13:39:59.411Z,4.50
2017-12-19T13:42:27.152Z,4.40
2017-12-19T13:44:54.815Z,4.70
2017-12-19T13:47:22.524Z,4.80
2017-12-19T13:49:50.271Z,4.70
2017-12-19T13:52:17.923Z,4.70
2017-12-19T13:54:46.457Z,4.40
2017-12-19T13:57:14.147Z,4.40
2017-12-19T13:59:41.935Z,4.50
2017-12-19T14:02:10.363Z,4.50
2017-12-19T14:04:38.058Z,4.50
2017-12-19T14:07:06.488Z,4.40
2017-12-19T14:09:34.200Z,4.40
2017-12-19T14:12:02.624Z,4.50
2017-12-19T14:14:30.369Z,4.50
2017-12-19T14:16:58.035Z,4.40
2017-12-19T14:19:25.751Z,4.40
2017-12-19T14:21:54.211Z,4.30
2017-12-19T14:24:21.930Z,4.20
2017-12-19T14:26:49.587Z,4.30
2017-12-19T14:29:17.283Z,4.30
2017-12-19T14:31:44.939Z,4.40
2017-12-19T14:34:12.644Z,4.60
2017-12-19T14:36:40.325Z,4.70
2017-12-19T14:39:08.043Z,4.70
2017-12-19T14:41:35.723Z,4.80
2017-12-19T14:44:03.461Z,4.80
2017-12-19T14:46:31.134Z,4.70
2017-12-19T14:48:59.571Z,4.90
2017-12-19T14:51:27.319Z,4.90
2017-12-19T14:53:54.987Z,4.70
2017-12-19T14:56:23.528Z,4.80
2017-12-19T14:58:51.286Z,4.80
2017-12-19T15:01:19.015Z,4.80
2017-12-19T15:03:46.688Z,4.70
2017-12-19T15:06:15.362Z,4.70
2017-12-19T15:08:43.087Z,4.70
2017-12-19T15:11:10.827Z,4.60
2017-12-19T15:13:38.663Z,4.50
2017-12-19T15:16:07.199Z,4.60
2017-12-19T15:18:34.904Z,4.60
2017-12-19T15:21:03.491Z,4.60
2017-12-19T15:23:31.938Z,4.50
2017-12-19T15:26:00.471Z,4.40
2017-12-19T15:28:28.534Z,4.40
2017-12-19T15:30:56.279Z,4.30
2017-12-19T15:33:24.790Z,4.40
2017-12-19T15:35:52.501Z,4.40
2017-12-19T15:38:21.029Z,4.50
2017-12-19T15:40:48.755Z,4.40
2017-12-19T15:43:17.190Z,4.30
2017-12-19T15:45:45.043Z,4.20
2017-12-19T15:48:12.805Z,4.20
2017-12-19T15:50:40.479Z,4.10
2017-12-19T15:53:08.203Z,4.20
2017-12-19T15:55:35.868Z,4.20
2017-12-19T15:58:03.616Z,4.30
2017-12-19T16:00:31.355Z,4.30
2017-12-19T16:02:59.824Z,4.30
2017-12-19T16:05:28.254Z,4.40
2017-12-19T16:07:56.030Z,4.40
2017-12-19T16:10:23.711Z,4.40
2017-12-19T16:12:51.471Z,4.40
2017-12-19T16:15:19.156Z,4.30
2017-12-19T16:17:47.630Z,4.30
2017-12-19T16:20:16.068Z,4.20
2017-12-19T16:22:43.772Z,4.20
2017-12-19T16:25:12.203Z,4.30
2017-12-19T16:27:39.913Z,4.20
2017-12-19T16:30:08.359Z,4.10
2017-12-19T16:32:36.356Z,4.00
2017-12-19T16:35:04.051Z,4.10
2017-12-19T16:37:31.789Z,4.00
2017-12-19T16:39:59.475Z,4.00
2017-12-19T16:42:27.204Z,4.10
2017-12-19T16:44:54.897Z,4.10
2017-12-19T16:47:22.647Z,4.20
2017-12-19T16:49:51.359Z,4.10
2017-12-19T16:52:19.094Z,4.10
2017-12-19T16:54:46.775Z,4.20
2017-12-19T16:57:14.440Z,4.10
2017-12-19T16:59:42.155Z,4.10
2017-12-19T17:02:09.833Z,4.10
2017-12-19T17:04:37.553Z,4.00
2017-12-19T17:07:05.991Z,3.90
2017-12-19T17:09:33.754Z,4.00
2017-12-19T17:12:01.429Z,3.90
2017-12-19T17:14:29.434Z,4.10
2017-12-19T17:16:57.279Z,4.10
2017-12-19T17:19:25.851Z,4.10
2017-12-19T17:21:54.665Z,4.10
2017-12-19T17:24:22.534Z,4.10
2017-12-19T17:26:50.822Z,4.10
2017-12-19T17:29:18.560Z,4.00
2017-12-19T17:31:47.011Z,4.10
2017-12-19T17:34:14.881Z,4.10
2017-12-19T17:36:42.548Z,4.10
2017-12-19T17:39:11.023Z,4.10
2017-12-19T17:41:38.683Z,4.10
2017-12-19T17:44:07.176Z,4.10
2017-12-19T17:46:35.660Z,4.10
2017-12-19T17:49:03.687Z,4.10
2017-12-19T17:51:31.618Z,4.10
2017-12-19T17:53:59.331Z,4.10
2017-12-19T17:56:26.995Z,4.00
2017-12-19T17:58:55.553Z,4.10
2017-12-19T18:01:23.217Z,4.10
2017-12-19T18:03:51.020Z,4.00
2017-12-19T18:06:19.799Z,3.90
2017-12-19T18:08:47.775Z,4.00
2017-12-19T18:11:15.443Z,4.00
2017-12-19T18:13:43.152Z,4.00
2017-12-19T18:16:10.807Z,4.10
2017-12-19T18:18:38.521Z,4.10
2017-12-19T18:21:06.184Z,3.90
2017-12-19T18:23:33.891Z,3.80
2017-12-19T18:26:01.564Z,3.90
2017-12-19T18:28:30.435Z,4.00
2017-12-19T18:30:58.211Z,4.00
2017-12-19T18:33:25.929Z,3.90
2017-12-19T18:35:53.591Z,4.00
2017-12-19T18:38:21.395Z,4.00
2017-12-19T18:40:49.111Z,4.00
2017-12-19T18:43:16.819Z,4.00
2017-12-19T18:45:45.259Z,4.00
2017-12-19T18:48:12.971Z,3.90
2017-12-19T18:50:41.408Z,4.00
2017-12-19T18:53:09.129Z,3.90
2017-12-19T18:55:36.827Z,3.90
2017-12-19T18:58:05.058Z,3.90
2017-12-19T19:00:35.161Z,3.90
2017-12-19T19:03:02.884Z,3.90
2017-12-19T19:05:30.555Z,4.00
2017-12-19T19:07:58.275Z,4.00
2017-12-19T19:10:25.934Z,3.90
2017-12-19T19:12:53.680Z,3.90
2017-12-19T19:15:21.349Z,3.90
2017-12-19T19:17:49.019Z,4.00
2017-12-19T19:20:16.735Z,4.00
2017-12-19T19:22:45.463Z,3.80
2017-12-19T19:25:13.175Z,3.80
2017-12-19T19:27:41.636Z,3.90
2017-12-19T19:30:09.348Z,3.90
2017-12-19T19:32:37.018Z,3.80
2017-12-19T19:35:04.746Z,3.90
2017-12-19T19:37:32.419Z,4.00
2017-12-19T19:40:00.130Z,3.90
2017-12-19T19:42:27.817Z,3.90
2017-12-19T19:44:55.539Z,4.00
2017-12-19T19:47:23.219Z,3.90
2017-12-19T19:49:50.940Z,3.70
2017-12-19T19:52:18.995Z,3.80
2017-12-19T19:54:46.715Z,3.80
2017-12-19T19:57:15.153Z,4.00
2017-12-19T19:59:42.847Z,3.90
2017-12-19T20:02:10.511Z,4.00
2017-12-19T20:04:39.360Z,4.00
2017-12-19T20:07:07.027Z,3.90
2017-12-19T20:09:34.736Z,3.90
2017-12-19T20:12:03.175Z,4.00
2017-12-19T20:14:32.129Z,3.90
2017-12-19T20:17:00.144Z,3.90
2017-12-19T20:19:27.944Z,3.90
2017-12-19T20:21:56.337Z,3.90
2017-12-19T20:24:24.092Z,3.90
2017-12-19T20:26:53.175Z,3.90
2017-12-19T20:29:20.882Z,4.00
2017-12-19T20:31:48.556Z,4.00
2017-12-19T20:34:16.267Z,3.80
2017-12-19T20:36:43.927Z,3.80
2017-12-19T20:39:11.655Z,3.90
2017-12-19T20:41:40.089Z,3.80
2017-12-19T20:44:07.787Z,3.80
2017-12-19T20:46:36.231Z,3.80
2017-12-19T20:49:04.096Z,3.90
2017-12-19T20:51:31.754Z,3.90
2017-12-19T20:53:59.479Z,4.00
2017-12-19T20:56:27.139Z,4.00
2017-12-19T20:58:54.847Z,4.10
2017-12-19T21:01:22.510Z,4.10
2017-12-19T21:03:50.231Z,4.10
2017-12-19T21:06:17.905Z,4.20
2017-12-19T21:08:45.606Z,4.10
2017-12-19T21:11:14.037Z,4.10
2017-12-19T21:13:41.747Z,4.10
2017-12-19T21:16:10.170Z,4.00
2017-12-19T21:18:37.874Z,4.00
2017-12-19T21:21:05.549Z,4.00
2017-12-19T21:23:35.142Z,3.90
2017-12-19T21:26:03.403Z,3.90
2017-12-19T21:28:31.907Z,4.00
2017-12-19T21:30:59.710Z,3.90
2017-12-19T21:33:27.636Z,4.10
2017-12-19T21:35:56.079Z,4.10
2017-12-19T21:38:24.943Z,4.10
2017-12-19T21:40:52.655Z,4.10
2017-12-19T21:43:20.363Z,4.10
2017-12-19T21:45:48.060Z,4.10
2017-12-19T21:48:15.753Z,4.10
2017-12-19T21:50:43.454Z,4.00
2017-12-19T21:53:11.124Z,4.10
2017-12-19T21:55:38.841Z,4.00
2017-12-19T21:58:06.522Z,4.00
2017-12-19T22:00:34.231Z,4.00
2017-12-19T22:03:02.707Z,4.00
2017-12-19T22:05:31.183Z,3.90
2017-12-19T22:07:58.844Z,3.90
2017-12-19T22:10:26.544Z,4.00
2017-12-19T22:12:54.195Z,4.00
2017-12-19T22:15:21.911Z,4.10
2017-12-19T22:17:49.592Z,4.10
2017-12-19T22:20:18.066Z,4.00
2017-12-19T22:22:46.520Z,4.10
2017-12-19T22:25:14.226Z,4.00
2017-12-19T22:27:41.937Z,4.00
2017-12-19T22:30:09.639Z,4.10
2017-12-19T22:32:38.075Z,4.00
2017-12-19T22:35:05.777Z,4.00
2017-12-19T22:37:34.206Z,4.00
2017-12-19T22:40:01.919Z,4.00
2017-12-19T22:42:29.576Z,4.00
2017-12-19T22:44:57.280Z,4.00
2017-12-19T22:47:25.124Z,4.00
2017-12-19T22:49:52.860Z,4.00
2017-12-19T22:52:20.519Z,3.80
2017-12-19T22:54:48.227Z,3.80
2017-12-19T22:57:15.888Z,3.70
2017-12-19T22:59:43.601Z,3.80
2017-12-19T23:02:11.259Z,3.90
2017-12-19T23:04:39.414Z,4.00
2017-12-19T23:07:07.839Z,4.00
2017-12-19T23:09:35.534Z,4.00
2017-12-19T23:12:03.191Z,4.00
2017-12-19T23:14:30.891Z,4.00
2017-12-19T23:16:58.581Z,4.00
2017-12-19T23:19:26.283Z,4.00
2017-12-19T23:21:54.711Z,4.00
2017-12-19T23:24:22.415Z,4.00
2017-12-19T23:26:50.086Z,4.00
2017-12-19T23:29:18.555Z,4.00
2017-12-19T23:31:46.252Z,4.00
2017-12-19T23:34:13.956Z,4.10
2017-12-19T23:36:41.623Z,4.20
2017-12-19T23:39:09.891Z,4.20
2017-12-19T23:41:37.563Z,4.00
2017-12-19T23:44:05.259Z,4.00
2017-12-19T23:46:32.934Z,4.00
2017-12-19T23:49:00.630Z,4.00
2017-12-19T23:51:28.295Z,4.10
2017-12-19T23:53:56.010Z,4.10
2017-12-19T23:56:23.681Z,4.10
2017-12-19T23:58:51.343Z,4.00
